createdAt,value
2022-12-18T00:00:41.527Z,84.82
2022-12-18T00:01:41.605Z,84.89
2022-12-18T00:02:41.575Z,85.03
2022-12-18T00:03:41.984Z,85.13
2022-12-18T00:04:41.487Z,85.03
2022-12-18T00:05:41.467Z,84.92
2022-12-18T00:06:41.466Z,84.92
2022-12-18T00:07:41.451Z,84.92
2022-12-18T00:08:41.438Z,84.92
2022-12-18T00:09:41.448Z,84.82
2022-12-18T00:10:41.437Z,84.82
2022-12-18T00:11:41.419Z,84.82
2022-12-18T00:12:41.375Z,84.92
2022-12-18T00:13:41.834Z,84.92
2022-12-18T00:14:41.646Z,84.92
2022-12-18T00:15:41.337Z,84.92
2022-12-18T00:16:41.375Z,84.92
2022-12-18T00:17:41.319Z,84.92
2022-12-18T00:18:41.799Z,84.92
2022-12-18T00:19:41.286Z,84.92
2022-12-18T00:20:41.276Z,85.03
2022-12-18T00:21:41.288Z,85.03
2022-12-18T00:22:41.248Z,85.13
2022-12-18T00:23:41.662Z,85.13
2022-12-18T00:24:41.221Z,85.13
2022-12-18T00:25:41.225Z,85.24
2022-12-18T00:26:41.241Z,85.13
2022-12-18T00:27:41.186Z,85.03
2022-12-18T00:28:41.189Z,85.13
2022-12-18T00:29:41.193Z,85.03
2022-12-18T00:30:41.155Z,85.03
2022-12-18T00:31:41.187Z,84.92
2022-12-18T00:32:41.127Z,84.82
2022-12-18T00:33:41.483Z,84.71
2022-12-18T00:34:41.110Z,84.71
2022-12-18T00:35:41.075Z,84.61
2022-12-18T00:36:41.100Z,84.71
2022-12-18T00:37:41.055Z,84.92
2022-12-18T00:38:41.045Z,84.92
2022-12-18T00:39:41.036Z,84.92
2022-12-18T00:40:41.024Z,84.82
2022-12-18T00:41:41.037Z,84.82
2022-12-18T00:42:40.997Z,84.82
2022-12-18T00:43:41.356Z,84.92
2022-12-18T00:44:40.975Z,84.82
2022-12-18T00:45:41.002Z,84.82
2022-12-18T00:46:40.948Z,84.82
2022-12-18T00:47:40.947Z,84.82
2022-12-18T00:48:40.915Z,84.71
2022-12-18T00:49:40.902Z,84.71
2022-12-18T00:50:40.897Z,84.71
2022-12-18T00:51:40.886Z,84.71
2022-12-18T00:52:40.892Z,84.71
2022-12-18T00:53:41.131Z,84.71
2022-12-18T00:54:40.843Z,84.71
2022-12-18T00:55:40.833Z,84.71
2022-12-18T00:56:48.326Z,84.71
2022-12-18T00:57:41.845Z,84.82
2022-12-18T00:58:40.794Z,84.71
2022-12-18T00:59:40.793Z,84.82
2022-12-18T01:00:40.803Z,84.71
2022-12-18T01:01:40.858Z,84.71
2022-12-18T01:02:40.869Z,84.71
2022-12-18T01:03:41.351Z,84.71
2022-12-18T01:04:40.714Z,84.82
2022-12-18T01:05:40.723Z,84.82
2022-12-18T01:06:40.684Z,84.82
2022-12-18T01:07:40.746Z,84.82
2022-12-18T01:08:40.659Z,84.82
2022-12-18T01:09:40.654Z,84.82
2022-12-18T01:10:40.636Z,84.82
2022-12-18T01:11:40.626Z,84.82
2022-12-18T01:12:40.631Z,84.71
2022-12-18T01:13:40.974Z,84.61
2022-12-18T01:14:40.594Z,84.71
2022-12-18T01:15:40.596Z,84.71
2022-12-18T01:16:40.764Z,84.71
2022-12-18T01:17:40.565Z,84.61
2022-12-18T01:18:40.534Z,84.50
2022-12-18T01:19:40.528Z,84.61
2022-12-18T01:20:40.538Z,84.50
2022-12-18T01:21:40.501Z,84.61
2022-12-18T01:22:40.531Z,84.50
2022-12-18T01:23:40.858Z,84.50
2022-12-18T01:24:40.457Z,84.50
2022-12-18T01:25:40.453Z,84.50
2022-12-18T01:26:40.433Z,84.50
2022-12-18T01:27:40.465Z,84.50
2022-12-18T01:28:40.978Z,84.54
2022-12-18T01:29:40.440Z,84.65
2022-12-18T01:30:40.401Z,84.75
2022-12-18T01:31:40.447Z,84.86
2022-12-18T01:32:40.377Z,84.86
2022-12-18T01:33:40.688Z,84.96
2022-12-18T01:34:40.333Z,84.96
2022-12-18T01:35:40.323Z,84.86
2022-12-18T01:36:40.305Z,84.86
2022-12-18T01:37:40.316Z,84.86
2022-12-18T01:38:40.273Z,84.75
2022-12-18T01:39:40.271Z,84.86
2022-12-18T01:40:40.253Z,84.75
2022-12-18T01:41:40.243Z,84.75
2022-12-18T01:42:40.242Z,84.65
2022-12-18T01:43:40.678Z,84.65
2022-12-18T01:44:40.213Z,84.65
2022-12-18T01:45:40.251Z,84.75
2022-12-18T01:46:40.190Z,84.75
2022-12-18T01:47:40.247Z,84.65
2022-12-18T01:48:40.181Z,84.65
2022-12-18T01:49:40.151Z,84.65
2022-12-18T01:50:40.141Z,84.75
2022-12-18T01:51:40.121Z,84.65
2022-12-18T01:52:40.112Z,84.54
2022-12-18T01:53:40.485Z,84.50
2022-12-18T01:54:40.075Z,84.54
2022-12-18T01:55:40.080Z,84.50
2022-12-18T01:56:40.053Z,84.54
2022-12-18T01:57:40.073Z,84.50
2022-12-18T01:58:40.023Z,84.54
2022-12-18T01:59:40.022Z,84.40
2022-12-18T02:00:40.072Z,84.44
2022-12-18T02:01:40.049Z,84.50
2022-12-18T02:02:40.091Z,84.50
2022-12-18T02:03:40.354Z,84.40
2022-12-18T02:04:41.924Z,84.44
2022-12-18T02:05:39.951Z,84.54
2022-12-18T02:06:39.928Z,84.65
2022-12-18T02:07:39.930Z,84.65
2022-12-18T02:08:39.897Z,84.44
2022-12-18T02:09:39.891Z,84.44
2022-12-18T02:10:39.861Z,84.54
2022-12-18T02:11:39.890Z,84.54
2022-12-18T02:12:39.872Z,84.54
2022-12-18T02:13:40.330Z,84.44
2022-12-18T02:14:39.823Z,84.54
2022-12-18T02:15:39.810Z,84.54
2022-12-18T02:16:39.843Z,84.44
2022-12-18T02:17:39.820Z,84.54
2022-12-18T02:18:39.771Z,84.65
2022-12-18T02:19:39.761Z,84.75
2022-12-18T02:20:39.748Z,84.75
2022-12-18T02:21:39.740Z,84.65
2022-12-18T02:22:39.738Z,84.65
2022-12-18T02:23:40.073Z,84.65
2022-12-18T02:24:39.692Z,84.75
2022-12-18T02:25:39.701Z,84.65
2022-12-18T02:26:39.662Z,84.65
2022-12-18T02:27:39.800Z,84.54
2022-12-18T02:28:39.672Z,84.75
2022-12-18T02:29:39.640Z,84.75
2022-12-18T02:30:39.675Z,84.65
2022-12-18T02:31:39.626Z,84.54
2022-12-18T02:32:39.609Z,84.54
2022-12-18T02:33:39.828Z,84.65
2022-12-18T02:34:39.573Z,84.65
2022-12-18T02:35:39.572Z,84.65
2022-12-18T02:36:47.347Z,84.75
2022-12-18T02:37:46.562Z,84.96
2022-12-18T02:38:39.513Z,85.07
2022-12-18T02:39:39.505Z,85.07
2022-12-18T02:40:39.493Z,85.07
2022-12-18T02:41:39.483Z,85.07
2022-12-18T02:42:39.474Z,85.07
2022-12-18T02:43:39.833Z,84.86
2022-12-18T02:44:39.465Z,84.86
2022-12-18T02:45:39.470Z,84.96
2022-12-18T02:46:39.422Z,85.07
2022-12-18T02:47:39.429Z,85.07
2022-12-18T02:48:39.395Z,84.96
2022-12-18T02:49:39.383Z,85.07
2022-12-18T02:50:39.364Z,85.07
2022-12-18T02:51:39.354Z,85.07
2022-12-18T02:52:39.365Z,84.96
2022-12-18T02:53:39.713Z,84.96
2022-12-18T02:54:39.311Z,84.96
2022-12-18T02:55:39.300Z,85.07
2022-12-18T02:56:39.295Z,85.17
2022-12-18T02:57:39.331Z,85.17
2022-12-18T02:58:39.280Z,85.28
2022-12-18T02:59:39.255Z,85.17
2022-12-18T03:00:39.282Z,85.03
2022-12-18T03:01:39.359Z,85.07
2022-12-18T03:02:39.346Z,85.07
2022-12-18T03:03:39.545Z,85.07
2022-12-18T03:04:39.204Z,85.07
2022-12-18T03:05:39.181Z,85.07
2022-12-18T03:06:39.154Z,85.07
2022-12-18T03:07:39.172Z,85.07
2022-12-18T03:08:39.142Z,85.07
2022-12-18T03:09:39.121Z,85.17
2022-12-18T03:10:39.102Z,85.17
2022-12-18T03:11:39.120Z,85.07
2022-12-18T03:12:39.121Z,85.17
2022-12-18T03:13:39.443Z,85.17
2022-12-18T03:14:39.116Z,85.17
2022-12-18T03:15:39.051Z,85.17
2022-12-18T03:16:39.058Z,85.17
2022-12-18T03:17:39.050Z,85.17
2022-12-18T03:18:39.027Z,85.17
2022-12-18T03:19:39.020Z,85.07
2022-12-18T03:20:38.980Z,85.07
2022-12-18T03:21:38.972Z,84.96
2022-12-18T03:22:39.003Z,84.92
2022-12-18T03:23:39.309Z,85.03
2022-12-18T03:24:38.932Z,85.07
2022-12-18T03:25:38.939Z,84.92
2022-12-18T03:26:38.910Z,84.92
2022-12-18T03:27:38.910Z,84.92
2022-12-18T03:28:38.876Z,84.92
2022-12-18T03:29:38.881Z,84.82
2022-12-18T03:30:38.930Z,84.71
2022-12-18T03:31:38.844Z,84.61
2022-12-18T03:32:38.851Z,84.61
2022-12-18T03:33:39.071Z,84.61
2022-12-18T03:34:38.821Z,84.61
2022-12-18T03:35:38.793Z,84.61
2022-12-18T03:36:38.792Z,84.50
2022-12-18T03:37:38.799Z,84.61
2022-12-18T03:38:38.753Z,84.61
2022-12-18T03:39:38.749Z,84.61
2022-12-18T03:40:38.739Z,84.61
2022-12-18T03:41:38.744Z,84.61
2022-12-18T03:42:38.752Z,84.71
2022-12-18T03:43:39.026Z,84.86
2022-12-18T03:44:38.685Z,84.82
2022-12-18T03:45:38.670Z,84.82
2022-12-18T03:46:38.660Z,84.82
2022-12-18T03:47:38.665Z,84.92
2022-12-18T03:48:38.638Z,84.82
2022-12-18T03:49:38.618Z,84.71
2022-12-18T03:50:38.623Z,84.71
2022-12-18T03:51:38.591Z,84.71
2022-12-18T03:52:38.590Z,84.71
2022-12-18T03:53:38.966Z,84.71
2022-12-18T03:54:38.559Z,84.61
2022-12-18T03:55:38.576Z,84.61
2022-12-18T03:56:38.536Z,84.61
2022-12-18T03:57:38.561Z,84.50
2022-12-18T03:58:38.498Z,84.50
2022-12-18T03:59:38.489Z,84.50
2022-12-18T04:00:38.483Z,84.50
2022-12-18T04:01:38.576Z,84.50
2022-12-18T04:02:38.534Z,84.50
2022-12-18T04:03:38.902Z,84.50
2022-12-18T04:04:38.420Z,84.40
2022-12-18T04:05:38.410Z,84.40
2022-12-18T04:06:38.403Z,84.40
2022-12-18T04:07:38.401Z,84.40
2022-12-18T04:08:38.401Z,84.50
2022-12-18T04:09:38.363Z,84.50
2022-12-18T04:10:38.363Z,84.40
2022-12-18T04:11:38.334Z,84.50
2022-12-18T04:12:38.329Z,84.61
2022-12-18T04:13:38.698Z,84.61
2022-12-18T04:14:38.301Z,84.61
2022-12-18T04:15:38.326Z,84.50
2022-12-18T04:16:38.281Z,84.50
2022-12-18T04:17:38.288Z,84.40
2022-12-18T04:18:38.301Z,84.40
2022-12-18T04:19:38.233Z,84.40
2022-12-18T04:20:38.233Z,84.29
2022-12-18T04:21:38.211Z,84.29
2022-12-18T04:22:38.209Z,84.29
2022-12-18T04:23:38.608Z,84.40
2022-12-18T04:24:38.181Z,84.40
2022-12-18T04:25:38.149Z,84.40
2022-12-18T04:26:38.149Z,84.40
2022-12-18T04:27:47.828Z,84.29
2022-12-18T04:28:38.114Z,84.29
2022-12-18T04:29:38.104Z,84.40
2022-12-18T04:30:38.094Z,84.40
2022-12-18T04:31:38.133Z,84.40
2022-12-18T04:32:38.103Z,84.29
2022-12-18T04:33:38.445Z,84.40
2022-12-18T04:34:38.050Z,84.50
2022-12-18T04:35:38.044Z,84.40
2022-12-18T04:36:38.023Z,84.50
2022-12-18T04:37:38.035Z,84.54
2022-12-18T04:38:37.995Z,84.61
2022-12-18T04:39:37.975Z,84.75
2022-12-18T04:40:37.981Z,84.75
2022-12-18T04:41:37.945Z,84.75
2022-12-18T04:42:37.999Z,84.65
2022-12-18T04:43:38.228Z,84.71
2022-12-18T04:44:37.923Z,84.71
2022-12-18T04:45:37.903Z,84.86
2022-12-18T04:46:37.923Z,84.96
2022-12-18T04:47:37.901Z,84.82
2022-12-18T04:48:37.871Z,84.82
2022-12-18T04:49:37.843Z,84.82
2022-12-18T04:50:37.837Z,84.82
2022-12-18T04:51:37.822Z,84.82
2022-12-18T04:52:37.832Z,84.86
2022-12-18T04:53:38.067Z,84.96
2022-12-18T04:54:37.783Z,84.92
2022-12-18T04:55:37.780Z,84.82
2022-12-18T04:56:37.796Z,84.82
2022-12-18T04:57:37.742Z,84.86
2022-12-18T04:58:37.767Z,84.86
2022-12-18T04:59:37.725Z,84.86
2022-12-18T05:00:37.712Z,84.92
2022-12-18T05:01:37.730Z,84.82
2022-12-18T05:02:37.817Z,84.71
2022-12-18T05:03:38.118Z,84.71
2022-12-18T05:04:37.669Z,84.75
2022-12-18T05:05:37.641Z,84.65
2022-12-18T05:06:37.640Z,84.75
2022-12-18T05:07:37.632Z,84.86
2022-12-18T05:08:37.616Z,84.86
2022-12-18T05:09:37.592Z,85.07
2022-12-18T05:10:38.483Z,85.07
2022-12-18T05:11:37.580Z,85.17
2022-12-18T05:12:37.581Z,85.17
2022-12-18T05:13:37.892Z,85.07
2022-12-18T05:14:37.531Z,85.07
2022-12-18T05:15:37.546Z,84.96
2022-12-18T05:16:37.510Z,84.86
2022-12-18T05:17:37.521Z,84.86
2022-12-18T05:18:37.492Z,84.96
2022-12-18T05:19:37.495Z,84.96
2022-12-18T05:20:37.463Z,84.96
2022-12-18T05:21:37.441Z,84.96
2022-12-18T05:22:37.452Z,84.96
2022-12-18T05:23:37.676Z,84.96
2022-12-18T05:24:37.416Z,84.96
2022-12-18T05:25:37.394Z,85.07
2022-12-18T05:26:37.385Z,85.07
2022-12-18T05:27:37.381Z,85.07
2022-12-18T05:28:37.361Z,85.07
2022-12-18T05:29:37.341Z,85.07
2022-12-18T05:30:37.330Z,85.07
2022-12-18T05:31:39.719Z,85.07
2022-12-18T05:32:37.320Z,85.07
2022-12-18T05:33:37.589Z,84.96
2022-12-18T05:34:37.290Z,85.07
2022-12-18T05:35:37.261Z,85.07
2022-12-18T05:36:37.249Z,84.96
2022-12-18T05:37:42.674Z,84.96
2022-12-18T05:38:38.241Z,84.96
2022-12-18T05:39:37.209Z,85.07
2022-12-18T05:40:37.201Z,85.17
2022-12-18T05:41:37.195Z,85.17
2022-12-18T05:42:37.190Z,85.17
2022-12-18T05:43:37.493Z,85.17
2022-12-18T05:44:37.173Z,85.17
2022-12-18T05:45:37.165Z,85.07
2022-12-18T05:46:37.199Z,85.07
2022-12-18T05:47:37.119Z,85.07
2022-12-18T05:48:37.099Z,85.07
2022-12-18T05:49:37.078Z,85.07
2022-12-18T05:50:37.101Z,85.07
2022-12-18T05:51:37.060Z,85.07
2022-12-18T05:52:37.080Z,85.07
2022-12-18T05:53:37.498Z,85.07
2022-12-18T05:54:37.029Z,85.17
2022-12-18T05:55:37.022Z,85.17
2022-12-18T05:56:37.000Z,85.28
2022-12-18T05:57:37.010Z,85.38
2022-12-18T05:58:36.989Z,85.38
2022-12-18T05:59:36.958Z,85.49
2022-12-18T06:00:36.979Z,85.49
2022-12-18T06:01:37.017Z,85.60
2022-12-18T06:02:37.135Z,85.60
2022-12-18T06:03:36.978Z,85.60
2022-12-18T06:04:36.899Z,85.60
2022-12-18T06:05:36.879Z,85.60
2022-12-18T06:06:36.876Z,85.60
2022-12-18T06:07:36.877Z,85.70
2022-12-18T06:08:40.289Z,85.70
2022-12-18T06:09:37.832Z,85.70
2022-12-18T06:10:36.828Z,85.80
2022-12-18T06:11:36.805Z,85.80
2022-12-18T06:12:36.820Z,85.80
2022-12-18T06:13:36.990Z,85.80
2022-12-18T06:14:36.780Z,85.80
2022-12-18T06:15:36.756Z,85.80
2022-12-18T06:16:36.813Z,85.70
2022-12-18T06:17:36.748Z,85.70
2022-12-18T06:18:36.727Z,85.70
2022-12-18T06:19:36.699Z,85.80
2022-12-18T06:20:36.698Z,85.80
2022-12-18T06:21:36.680Z,85.80
2022-12-18T06:22:36.707Z,85.80
2022-12-18T06:23:36.804Z,85.70
2022-12-18T06:24:36.679Z,85.80
2022-12-18T06:25:36.628Z,85.80
2022-12-18T06:26:36.620Z,85.80
2022-12-18T06:27:36.649Z,85.80
2022-12-18T06:28:36.600Z,85.91
2022-12-18T06:29:36.574Z,86.02
2022-12-18T06:30:36.570Z,86.02
2022-12-18T06:31:36.669Z,86.02
2022-12-18T06:32:36.567Z,86.02
2022-12-18T06:33:36.635Z,86.02
2022-12-18T06:34:36.528Z,86.02
2022-12-18T06:35:36.498Z,86.02
2022-12-18T06:36:36.489Z,86.02
2022-12-18T06:37:36.509Z,86.22
2022-12-18T06:38:36.584Z,86.22
2022-12-18T06:39:36.446Z,86.12
2022-12-18T06:40:36.439Z,86.12
2022-12-18T06:41:36.420Z,86.02
2022-12-18T06:42:36.428Z,85.80
2022-12-18T06:43:36.566Z,85.70
2022-12-18T06:44:36.387Z,85.63
2022-12-18T06:45:36.391Z,85.63
2022-12-18T06:46:36.367Z,85.63
2022-12-18T06:47:36.367Z,85.74
2022-12-18T06:48:36.336Z,85.74
2022-12-18T06:49:36.317Z,85.74
2022-12-18T06:50:36.310Z,85.74
2022-12-18T06:51:36.298Z,85.63
2022-12-18T06:52:36.315Z,85.53
2022-12-18T06:53:36.356Z,85.53
2022-12-18T06:54:36.257Z,85.53
2022-12-18T06:55:36.247Z,85.53
2022-12-18T06:56:36.235Z,85.42
2022-12-18T06:57:36.252Z,85.42
2022-12-18T06:58:36.212Z,85.53
2022-12-18T06:59:36.189Z,85.53
2022-12-18T07:00:36.219Z,85.63
2022-12-18T07:01:36.279Z,85.63
2022-12-18T07:02:36.252Z,85.53
2022-12-18T07:03:36.185Z,85.53
2022-12-18T07:04:36.137Z,85.49
2022-12-18T07:05:36.120Z,85.38
2022-12-18T07:06:36.116Z,85.42
2022-12-18T07:07:36.113Z,85.31
2022-12-18T07:08:36.092Z,85.28
2022-12-18T07:09:36.071Z,85.28
2022-12-18T07:10:36.055Z,85.28
2022-12-18T07:11:36.045Z,85.28
2022-12-18T07:12:36.055Z,85.17
2022-12-18T07:13:36.080Z,85.17
2022-12-18T07:14:36.017Z,85.07
2022-12-18T07:15:35.994Z,84.96
2022-12-18T07:16:36.018Z,84.75
2022-12-18T07:17:35.984Z,84.75
2022-12-18T07:18:35.956Z,84.75
2022-12-18T07:19:35.943Z,84.61
2022-12-18T07:20:35.957Z,84.50
2022-12-18T07:21:35.917Z,84.50
2022-12-18T07:22:35.923Z,84.40
2022-12-18T07:23:35.902Z,84.19
2022-12-18T07:24:35.875Z,84.19
2022-12-18T07:25:35.866Z,84.19
2022-12-18T07:26:35.867Z,83.98
2022-12-18T07:27:35.856Z,83.87
2022-12-18T07:28:35.836Z,83.76
2022-12-18T07:29:35.814Z,83.66
2022-12-18T07:30:35.804Z,83.66
2022-12-18T07:31:35.809Z,83.56
2022-12-18T07:32:35.815Z,83.66
2022-12-18T07:33:35.776Z,83.62
2022-12-18T07:34:35.761Z,83.52
2022-12-18T07:35:35.736Z,83.41
2022-12-18T07:36:35.727Z,83.41
2022-12-18T07:37:35.724Z,83.45
2022-12-18T07:38:35.696Z,83.41
2022-12-18T07:39:35.684Z,83.41
2022-12-18T07:40:35.674Z,83.41
2022-12-18T07:41:35.663Z,83.41
2022-12-18T07:42:35.696Z,83.20
2022-12-18T07:43:35.637Z,82.99
2022-12-18T07:44:35.628Z,82.99
2022-12-18T07:45:35.673Z,83.10
2022-12-18T07:46:35.606Z,83.10
2022-12-18T07:47:35.604Z,82.99
2022-12-18T07:48:35.573Z,82.99
2022-12-18T07:49:35.556Z,82.99
2022-12-18T07:50:35.544Z,83.10
2022-12-18T07:51:35.536Z,82.99
2022-12-18T07:52:35.534Z,82.89
2022-12-18T07:53:35.499Z,82.99
2022-12-18T07:54:35.500Z,82.89
2022-12-18T07:55:59.893Z,82.78
2022-12-18T07:56:36.473Z,82.89
2022-12-18T07:57:50.371Z,82.78
2022-12-18T07:58:36.451Z,82.78
2022-12-18T07:59:35.434Z,82.68
2022-12-18T08:00:35.416Z,82.68
2022-12-18T08:01:35.530Z,82.78
2022-12-18T08:02:35.477Z,82.68
2022-12-18T08:03:35.383Z,82.68
2022-12-18T08:04:35.365Z,82.64
2022-12-18T08:05:35.353Z,82.64
2022-12-18T08:06:35.344Z,82.68
2022-12-18T08:07:35.344Z,82.68
2022-12-18T08:08:35.313Z,82.57
2022-12-18T08:09:35.304Z,82.53
2022-12-18T08:10:35.285Z,82.64
2022-12-18T08:11:35.273Z,82.46
2022-12-18T08:12:35.274Z,82.53
2022-12-18T08:13:35.258Z,82.53
2022-12-18T08:14:35.234Z,82.53
2022-12-18T08:15:35.235Z,82.43
2022-12-18T08:16:35.236Z,82.32
2022-12-18T08:17:35.221Z,82.32
2022-12-18T08:18:35.196Z,82.53
2022-12-18T08:19:35.173Z,82.43
2022-12-18T08:20:35.169Z,82.43
2022-12-18T08:21:35.153Z,82.43
2022-12-18T08:22:35.167Z,82.43
2022-12-18T08:23:39.249Z,82.43
2022-12-18T08:24:36.108Z,82.32
2022-12-18T08:25:35.109Z,82.22
2022-12-18T08:26:35.094Z,82.11
2022-12-18T08:27:35.219Z,82.01
2022-12-18T08:28:35.055Z,81.97
2022-12-18T08:29:35.045Z,81.97
2022-12-18T08:30:35.098Z,81.97
2022-12-18T08:31:35.057Z,81.97
2022-12-18T08:32:35.027Z,81.76
2022-12-18T08:33:34.995Z,81.76
2022-12-18T08:34:34.984Z,81.65
2022-12-18T08:35:38.810Z,81.65
2022-12-18T08:36:36.135Z,81.65
2022-12-18T08:37:34.944Z,81.65
2022-12-18T08:38:34.925Z,81.65
2022-12-18T08:39:34.924Z,81.55
2022-12-18T08:40:34.904Z,81.55
2022-12-18T08:41:34.893Z,81.55
2022-12-18T08:42:34.903Z,81.34
2022-12-18T08:43:34.875Z,81.45
2022-12-18T08:44:34.852Z,81.55
2022-12-18T08:45:34.920Z,81.55
2022-12-18T08:46:34.883Z,81.45
2022-12-18T08:47:34.836Z,81.45
2022-12-18T08:48:34.806Z,81.45
2022-12-18T08:49:34.795Z,81.45
2022-12-18T08:50:34.776Z,81.55
2022-12-18T08:51:34.764Z,81.51
2022-12-18T08:52:34.785Z,81.41
2022-12-18T08:53:35.917Z,81.30
2022-12-18T08:54:34.722Z,81.30
2022-12-18T08:55:34.717Z,81.20
2022-12-18T08:56:34.703Z,81.20
2022-12-18T08:57:34.721Z,81.09
2022-12-18T08:58:34.683Z,80.99
2022-12-18T08:59:34.669Z,80.99
2022-12-18T09:00:34.643Z,80.95
2022-12-18T09:01:35.515Z,80.95
2022-12-18T09:02:34.774Z,80.74
2022-12-18T09:03:34.677Z,80.74
2022-12-18T09:04:34.604Z,80.85
2022-12-18T09:05:34.593Z,80.85
2022-12-18T09:06:34.574Z,80.85
2022-12-18T09:07:34.585Z,80.85
2022-12-18T09:08:34.543Z,80.85
2022-12-18T09:09:34.534Z,80.64
2022-12-18T09:10:38.798Z,80.74
2022-12-18T09:11:35.525Z,80.64
2022-12-18T09:12:34.523Z,80.53
2022-12-18T09:13:34.493Z,80.64
2022-12-18T09:14:34.472Z,80.74
2022-12-18T09:15:34.463Z,80.64
2022-12-18T09:16:34.483Z,80.43
2022-12-18T09:17:34.460Z,80.43
2022-12-18T09:18:34.422Z,80.43
2022-12-18T09:19:34.414Z,80.49
2022-12-18T09:20:34.396Z,80.49
2022-12-18T09:21:37.168Z,80.39
2022-12-18T09:22:34.384Z,80.18
2022-12-18T09:23:34.363Z,80.29
2022-12-18T09:24:34.343Z,79.97
2022-12-18T09:25:34.331Z,79.97
2022-12-18T09:26:34.312Z,79.97
2022-12-18T09:27:34.341Z,79.83
2022-12-18T09:28:34.304Z,79.62
2022-12-18T09:29:34.305Z,79.83
2022-12-18T09:30:34.328Z,80.15
2022-12-18T09:31:34.263Z,79.90
2022-12-18T09:32:34.254Z,79.48
2022-12-18T09:33:34.255Z,79.27
2022-12-18T09:34:34.214Z,79.16
2022-12-18T09:35:34.204Z,79.06
2022-12-18T09:36:34.191Z,78.96
2022-12-18T09:37:34.182Z,78.96
2022-12-18T09:38:34.196Z,79.06
2022-12-18T09:39:34.156Z,78.96
2022-12-18T09:40:34.133Z,78.85
2022-12-18T09:41:34.142Z,78.96
2022-12-18T09:42:34.133Z,78.96
2022-12-18T09:43:34.103Z,78.81
2022-12-18T09:44:34.125Z,78.81
2022-12-18T09:45:34.075Z,78.60
2022-12-18T09:46:34.090Z,78.50
2022-12-18T09:47:34.071Z,78.50
2022-12-18T09:48:34.029Z,77.87
2022-12-18T09:49:34.024Z,77.83
2022-12-18T09:50:34.014Z,77.62
2022-12-18T09:51:34.003Z,77.52
2022-12-18T09:52:34.001Z,77.73
2022-12-18T09:53:33.979Z,77.52
2022-12-18T09:54:33.955Z,77.42
2022-12-18T09:55:37.469Z,77.52
2022-12-18T09:56:33.942Z,77.38
2022-12-18T09:57:33.922Z,77.28
2022-12-18T09:58:33.922Z,77.28
2022-12-18T09:59:33.894Z,76.72
2022-12-18T10:00:33.880Z,76.20
2022-12-18T10:01:43.103Z,76.12
2022-12-18T10:02:34.938Z,76.44
2022-12-18T10:03:33.847Z,76.12
2022-12-18T10:04:33.868Z,75.70
2022-12-18T10:05:33.816Z,75.60
2022-12-18T10:06:33.802Z,75.78
2022-12-18T10:07:33.804Z,76.20
2022-12-18T10:08:33.765Z,76.40
2022-12-18T10:09:33.816Z,75.78
2022-12-18T10:10:33.744Z,75.46
2022-12-18T10:11:33.742Z,75.25
2022-12-18T10:12:34.901Z,75.25
2022-12-18T10:13:33.712Z,75.25
2022-12-18T10:14:33.693Z,75.04
2022-12-18T10:15:33.728Z,74.94
2022-12-18T10:16:33.664Z,74.73
2022-12-18T10:17:33.684Z,75.04
2022-12-18T10:18:33.644Z,74.84
2022-12-18T10:19:33.635Z,74.94
2022-12-18T10:20:33.616Z,75.15
2022-12-18T10:21:33.611Z,74.27
2022-12-18T10:22:33.627Z,74.07
2022-12-18T10:23:33.583Z,73.65
2022-12-18T10:24:33.563Z,73.86
2022-12-18T10:25:33.560Z,74.07
2022-12-18T10:26:33.547Z,74.07
2022-12-18T10:27:34.565Z,74.17
2022-12-18T10:28:33.615Z,73.86
2022-12-18T10:29:33.503Z,73.54
2022-12-18T10:30:33.493Z,73.93
2022-12-18T10:31:33.548Z,73.75
2022-12-18T10:32:33.466Z,73.33
2022-12-18T10:33:33.488Z,73.44
2022-12-18T10:34:33.434Z,73.33
2022-12-18T10:35:33.423Z,73.44
2022-12-18T10:36:33.415Z,73.54
2022-12-18T10:37:33.417Z,73.02
2022-12-18T10:38:33.385Z,73.44
2022-12-18T10:39:33.385Z,73.75
2022-12-18T10:40:33.364Z,73.75
2022-12-18T10:41:33.362Z,73.82
2022-12-18T10:42:33.466Z,73.61
2022-12-18T10:43:33.326Z,73.82
2022-12-18T10:44:33.302Z,73.37
2022-12-18T10:45:33.384Z,72.99
2022-12-18T10:46:33.358Z,72.78
2022-12-18T10:47:33.304Z,73.30
2022-12-18T10:48:33.282Z,73.30
2022-12-18T10:49:33.253Z,73.41
2022-12-18T10:51:01.697Z,73.06
2022-12-18T10:51:34.223Z,72.75
2022-12-18T10:52:33.223Z,72.47
2022-12-18T10:53:33.197Z,72.36
2022-12-18T10:54:33.174Z,72.67
2022-12-18T10:55:33.180Z,73.27
2022-12-18T10:56:33.152Z,72.75
2022-12-18T10:57:33.163Z,72.75
2022-12-18T10:58:33.124Z,73.06
2022-12-18T10:59:33.117Z,72.85
2022-12-18T11:00:33.097Z,72.22
2022-12-18T11:01:33.154Z,72.53
2022-12-18T11:02:33.286Z,72.75
2022-12-18T11:03:33.157Z,72.53
2022-12-18T11:04:33.056Z,72.43
2022-12-18T11:05:33.040Z,72.12
2022-12-18T11:06:33.038Z,71.77
2022-12-18T11:07:33.031Z,72.50
2022-12-18T11:08:33.000Z,71.53
2022-12-18T11:09:33.013Z,71.01
2022-12-18T11:10:32.982Z,71.32
2022-12-18T11:11:32.959Z,70.83
2022-12-18T11:12:32.964Z,71.46
2022-12-18T11:13:32.941Z,71.36
2022-12-18T11:14:32.913Z,71.67
2022-12-18T11:15:32.920Z,71.46
2022-12-18T11:16:32.958Z,71.77
2022-12-18T11:17:32.903Z,71.11
2022-12-18T11:18:32.865Z,71.25
2022-12-18T11:19:32.866Z,71.36
2022-12-18T11:20:32.844Z,71.56
2022-12-18T11:21:32.830Z,71.46
2022-12-18T11:22:32.830Z,71.25
2022-12-18T11:23:32.819Z,71.32
2022-12-18T11:24:32.784Z,71.32
2022-12-18T11:25:34.344Z,71.53
2022-12-18T11:26:32.765Z,71.01
2022-12-18T11:27:32.764Z,71.64
2022-12-18T11:28:32.753Z,71.22
2022-12-18T11:29:32.724Z,71.22
2022-12-18T11:30:32.712Z,71.11
2022-12-18T11:31:32.754Z,71.36
2022-12-18T11:32:32.693Z,71.14
2022-12-18T11:33:32.683Z,71.64
2022-12-18T11:34:32.653Z,72.02
2022-12-18T11:35:32.653Z,70.66
2022-12-18T11:36:32.633Z,70.35
2022-12-18T11:37:32.644Z,70.56
2022-12-18T11:38:32.625Z,70.48
2022-12-18T11:39:32.595Z,70.80
2022-12-18T11:40:36.512Z,71.11
2022-12-18T11:41:33.574Z,71.32
2022-12-18T11:42:32.577Z,71.11
2022-12-18T11:43:32.544Z,71.56
2022-12-18T11:44:32.523Z,71.98
2022-12-18T11:45:32.525Z,71.98
2022-12-18T11:46:32.532Z,72.08
2022-12-18T11:47:32.513Z,71.88
2022-12-18T11:48:32.473Z,72.19
2022-12-18T11:49:32.472Z,72.19
2022-12-18T11:50:32.454Z,71.88
2022-12-18T11:51:32.442Z,71.88
2022-12-18T11:52:32.446Z,71.67
2022-12-18T11:53:32.413Z,71.88
2022-12-18T11:54:32.403Z,71.88
2022-12-18T11:55:32.388Z,72.08
2022-12-18T11:56:32.374Z,71.67
2022-12-18T11:57:32.386Z,71.36
2022-12-18T11:58:32.354Z,71.88
2022-12-18T11:59:32.373Z,71.25
2022-12-18T12:00:32.323Z,71.22
2022-12-18T12:01:32.385Z,71.53
2022-12-18T12:02:32.457Z,72.16
2022-12-18T12:03:32.399Z,71.67
2022-12-18T12:04:32.360Z,71.36
2022-12-18T12:05:32.255Z,71.67
2022-12-18T12:06:32.240Z,71.77
2022-12-18T12:07:32.267Z,71.98
2022-12-18T12:08:32.214Z,72.08
2022-12-18T12:09:32.204Z,71.95
2022-12-18T12:10:32.195Z,71.74
2022-12-18T12:11:32.195Z,72.05
2022-12-18T12:12:32.184Z,72.05
2022-12-18T12:13:32.154Z,71.64
2022-12-18T12:14:32.142Z,71.64
2022-12-18T12:15:32.124Z,72.05
2022-12-18T12:16:32.183Z,71.74
2022-12-18T12:17:32.121Z,71.42
2022-12-18T12:18:32.092Z,71.32
2022-12-18T12:19:32.075Z,71.53
2022-12-18T12:20:35.951Z,71.84
2022-12-18T12:21:32.045Z,71.74
2022-12-18T12:22:32.054Z,71.64
2022-12-18T12:23:32.022Z,71.74
2022-12-18T12:24:32.015Z,71.32
2022-12-18T12:25:32.041Z,71.11
2022-12-18T12:26:31.991Z,71.42
2022-12-18T12:27:31.987Z,71.64
2022-12-18T12:28:31.968Z,71.53
2022-12-18T12:29:31.943Z,71.32
2022-12-18T12:30:31.942Z,71.42
2022-12-18T12:31:31.965Z,71.42
2022-12-18T12:32:31.931Z,71.53
2022-12-18T12:33:31.893Z,71.64
2022-12-18T12:34:31.891Z,71.95
2022-12-18T12:35:31.863Z,71.84
2022-12-18T12:36:31.858Z,72.19
2022-12-18T12:37:31.865Z,71.77
2022-12-18T12:38:31.830Z,72.19
2022-12-18T12:39:31.815Z,71.88
2022-12-18T12:41:32.790Z,72.30
2022-12-18T12:42:31.806Z,72.40
2022-12-18T12:43:31.757Z,72.19
2022-12-18T12:44:31.757Z,72.81
2022-12-18T12:45:31.785Z,73.13
2022-12-18T12:46:31.756Z,72.92
2022-12-18T12:47:31.713Z,72.81
2022-12-18T12:48:31.697Z,73.24
2022-12-18T12:49:32.239Z,73.13
2022-12-18T12:50:31.686Z,72.92
2022-12-18T12:51:31.666Z,72.71
2022-12-18T12:52:31.644Z,73.02
2022-12-18T12:53:31.636Z,72.92